Time;durP1;ratioP1;P1;durP2;ratioP2;P2;SDS_P1;SDS_P2;PMS_P1;PMS_P2;Temp;Humidity;BMP_temperature;BMP_pressure;BME280_temperature;BME280_humidity;BME280_pressure;Samples;Min_cycle;Max_cycle;Signal;HPM_P1;HPM_P2
2022/10/16 00:00:37;;;;;;;5.95;1.60;;;13.00;99.90;;;;;;4979841;28;20053;-33
2022/10/16 00:03:05;;;;;;;2.63;1.75;;;13.00;99.90;;;;;;4963926;28;20031;-33
2022/10/16 00:05:31;;;;;;;3.63;1.50;;;12.90;99.90;;;;;;4964203;28;20049;-32
2022/10/16 00:07:57;;;;;;;3.65;1.50;;;12.90;99.90;;;;;;4963713;28;20034;-34
2022/10/16 00:10:23;;;;;;;5.10;1.42;;;12.80;99.90;;;;;;4964688;28;20030;-33
2022/10/16 00:12:49;;;;;;;4.13;1.60;;;12.90;99.90;;;;;;4965574;28;20042;-34
2022/10/16 00:15:16;;;;;;;2.90;2.00;;;12.90;99.90;;;;;;4961994;28;20105;-36
2022/10/16 00:17:41;;;;;;;1.90;1.27;;;13.00;99.90;;;;;;4963935;28;20039;-34
2022/10/16 00:20:07;;;;;;;4.57;1.45;;;13.00;99.90;;;;;;4961568;28;20479;-35
2022/10/16 00:22:33;;;;;;;2.35;1.45;;;12.90;99.90;;;;;;4965054;28;20029;-36
2022/10/16 00:24:59;;;;;;;4.00;1.58;;;12.80;99.90;;;;;;4980337;28;20065;-30
2022/10/16 00:27:25;;;;;;;2.95;1.65;;;12.70;99.90;;;;;;4963387;28;20101;-36
2022/10/16 00:29:52;;;;;;;2.58;1.70;;;12.70;99.90;;;;;;4976458;28;20030;-31
2022/10/16 00:32:19;;;;;;;3.70;1.95;;;12.60;99.90;;;;;;4964186;28;20034;-32
2022/10/16 00:34:45;;;;;;;3.38;1.60;;;12.50;99.90;;;;;;4966600;28;20113;-34
2022/10/16 00:37:11;;;;;;;1.67;1.40;;;12.60;99.90;;;;;;4977523;28;20159;-34
2022/10/16 00:39:37;;;;;;;1.70;1.60;;;12.70;99.90;;;;;;4975536;28;20129;-33
2022/10/16 00:42:03;;;;;;;5.70;1.65;;;12.60;99.90;;;;;;4974556;28;20034;-36
2022/10/16 00:44:55;;;;;;;3.28;1.50;;;12.70;99.90;;;;;;4964062;28;20503;-35
2022/10/16 00:47:44;;;;;;;5.65;1.67;;;12.80;99.90;;;;;;4961299;28;20502;-34
2022/10/16 00:50:28;;;;;;;2.67;1.80;;;12.80;99.90;;;;;;4978954;28;20031;-33
2022/10/16 00:52:55;;;;;;;2.10;1.55;;;12.80;99.90;;;;;;4963437;28;20031;-35
2022/10/16 00:55:21;;;;;;;2.47;1.70;;;12.80;99.90;;;;;;4978699;28;20077;-32
2022/10/16 00:57:47;;;;;;;4.25;1.63;;;12.70;99.90;;;;;;4964531;28;20109;-35
2022/10/16 01:00:33;;;;;;;4.15;1.25;;;12.80;99.90;;;;;;4962830;28;20142;-38
2022/10/16 01:03:01;;;;;;;3.03;1.08;;;12.80;99.90;;;;;;4965241;28;20050;-32
2022/10/16 01:05:39;;;;;;;2.90;1.40;;;12.90;99.90;;;;;;4961627;28;20043;-34
2022/10/16 01:08:07;;;;;;;2.15;1.25;;;12.90;99.90;;;;;;4965956;28;20035;-35
2022/10/16 01:10:57;;;;;;;1.52;1.27;;;12.90;99.90;;;;;;4961461;28;20052;-31
2022/10/16 01:13:38;;;;;;;1.38;1.30;;;12.90;99.90;;;;;;4979483;28;20034;-35
2022/10/16 01:16:15;;;;;;;2.50;1.15;;;12.90;99.90;;;;;;4983887;28;20031;-36
2022/10/16 01:18:52;;;;;;;4.03;1.53;;;12.80;99.90;;;;;;4984018;28;20149;-31
2022/10/16 01:21:26;;;;;;;2.70;1.20;;;12.60;99.90;;;;;;4966436;28;20161;-35
2022/10/16 01:24:11;;;;;;;2.22;1.60;;;12.50;99.90;;;;;;4981818;28;20039;-32
2022/10/16 01:27:17;;;;;;;4.07;1.40;;;12.50;99.90;;;;;;4969559;28;20384;-35
2022/10/16 01:30:01;;;;;;;1.50;1.40;;;12.50;99.90;;;;;;4950466;28;20070;-33
2022/10/16 01:32:41;;;;;;;1.50;1.40;;;12.40;99.90;;;;;;4965644;28;20026;-38
2022/10/16 01:35:29;;;;;;;1.70;1.40;;;12.30;99.90;;;;;;4969756;28;20028;-33
2022/10/16 01:38:24;;;;;;;2.60;1.77;;;12.30;99.90;;;;;;4968536;28;20491;-33
2022/10/16 01:41:08;;;;;;;1.92;1.60;;;12.30;99.90;;;;;;4959606;28;20027;-35
2022/10/16 01:43:38;;;;;;;1.77;1.38;;;12.30;99.90;;;;;;4966385;28;20030;-34
2022/10/16 01:46:05;;;;;;;2.17;1.40;;;12.20;99.90;;;;;;4950507;28;20034;-35
2022/10/16 01:48:32;;;;;;;7.72;1.40;;;12.20;99.90;;;;;;4984334;28;20117;-36
2022/10/16 01:51:08;;;;;;;3.97;1.35;;;12.30;99.90;;;;;;4968949;28;20030;-32
2022/10/16 01:53:37;;;;;;;2.85;1.55;;;12.30;99.90;;;;;;4968047;28;20058;-36
2022/10/16 01:56:09;;;;;;;1.45;1.35;;;12.30;99.90;;;;;;4969617;28;20034;-34
2022/10/16 01:58:38;;;;;;;2.53;1.67;;;12.40;99.90;;;;;;4966183;28;20148;-33
2022/10/16 02:01:07;;;;;;;3.03;1.63;;;12.40;99.90;;;;;;4966721;28;20031;-37
2022/10/16 02:03:37;;;;;;;2.85;1.50;;;12.50;99.90;;;;;;4970716;28;20035;-33
2022/10/16 02:06:03;;;;;;;1.50;1.40;;;12.30;99.90;;;;;;4982680;28;20093;-34
2022/10/16 02:08:30;;;;;;;5.40;1.92;;;12.30;99.90;;;;;;4965874;28;20539;-35
2022/10/16 02:11:03;;;;;;;6.85;1.40;;;12.20;99.90;;;;;;4967798;28;20042;-33
2022/10/16 02:13:50;;;;;;;2.80;1.20;;;12.20;99.90;;;;;;4964536;28;21518;-36
2022/10/16 02:16:16;;;;;;;3.95;1.42;;;12.20;99.90;;;;;;4982470;28;20077;-34
2022/10/16 02:18:44;;;;;;;4.55;1.30;;;12.20;99.90;;;;;;4979084;28;20396;-34
2022/10/16 02:21:25;;;;;;;1.40;1.30;;;12.20;99.90;;;;;;4965799;28;20034;-34
2022/10/16 02:24:05;;;;;;;2.28;1.30;;;12.30;99.90;;;;;;4969985;28;20019;-32
2022/10/16 02:26:39;;;;;;;2.90;1.30;;;12.30;99.90;;;;;;4979886;28;20252;-35
2022/10/16 02:29:11;;;;;;;2.15;1.30;;;12.30;99.90;;;;;;4982512;28;20031;-34
2022/10/16 02:31:45;;;;;;;1.88;1.10;;;12.40;99.90;;;;;;4966212;28;20125;-33
2022/10/16 02:34:13;;;;;;;4.60;1.50;;;12.40;99.90;;;;;;4983096;28;20035;-34
2022/10/16 02:36:41;;;;;;;5.78;1.52;;;12.40;99.90;;;;;;4995199;28;20122;-35
2022/10/16 02:39:07;;;;;;;1.33;1.25;;;12.30;99.90;;;;;;4969953;28;20038;-36
2022/10/16 02:41:33;;;;;;;1.25;1.20;;;12.30;99.90;;;;;;4969070;28;20050;-36
2022/10/16 02:44:01;;;;;;;1.50;1.38;;;12.30;99.90;;;;;;4967855;28;20519;-34
2022/10/16 02:46:26;;;;;;;3.45;2.83;;;12.30;99.90;;;;;;4971761;28;20113;-32
2022/10/16 02:48:52;;;;;;;7.07;5.00;;;12.20;99.90;;;;;;4982994;28;20031;-32
2022/10/16 02:51:18;;;;;;;7.97;7.00;;;12.20;99.90;;;;;;4972578;28;20085;-34
2022/10/16 02:53:44;;;;;;;10.50;6.43;;;12.30;99.90;;;;;;4968713;28;20034;-32
2022/10/16 02:56:10;;;;;;;8.55;7.18;;;12.30;99.90;;;;;;4984449;28;20034;-34
2022/10/16 02:58:36;;;;;;;6.25;5.18;;;12.40;99.90;;;;;;4969756;28;20085;-36
2022/10/16 03:01:02;;;;;;;8.00;4.57;;;12.30;99.90;;;;;;4968759;28;20491;-35
2022/10/16 03:03:28;;;;;;;4.65;3.65;;;12.30;99.90;;;;;;4986259;28;20057;-35
2022/10/16 03:05:56;;;;;;;3.45;2.67;;;12.40;99.90;;;;;;4983719;28;20089;-36
2022/10/16 03:08:24;;;;;;;3.10;2.50;;;12.40;99.90;;;;;;4987625;28;20026;-34
2022/10/16 03:10:51;;;;;;;6.88;3.63;;;12.40;99.90;;;;;;4967741;28;20034;-36
2022/10/16 03:13:20;;;;;;;5.65;3.83;;;12.50;99.90;;;;;;4985144;28;20038;-33
2022/10/16 03:15:46;;;;;;;5.30;4.80;;;12.50;99.90;;;;;;4984171;28;20022;-33
2022/10/16 03:18:12;;;;;;;6.93;5.38;;;12.50;99.90;;;;;;4982513;28;20105;-33
2022/10/16 03:20:39;;;;;;;4.78;4.28;;;12.60;99.90;;;;;;4968667;28;20022;-35
2022/10/16 03:23:06;;;;;;;4.28;3.88;;;12.60;99.90;;;;;;4984985;28;20022;-34
2022/10/16 03:25:32;;;;;;;9.17;5.30;;;12.60;99.90;;;;;;4965794;28;20027;-32
2022/10/16 03:27:58;;;;;;;24.33;13.20;;;12.60;99.90;;;;;;4986528;28;20280;-31
2022/10/16 03:30:24;;;;;;;8.85;5.63;;;12.60;99.90;;;;;;4979289;28;20130;-33
2022/10/16 03:32:53;;;;;;;5.85;3.78;;;12.50;99.90;;;;;;4984658;28;20063;-35
2022/10/16 03:35:23;;;;;;;4.13;3.00;;;12.50;99.90;;;;;;4967996;28;20038;-31
2022/10/16 03:37:50;;;;;;;2.80;2.35;;;12.50;99.90;;;;;;4967729;28;20027;-37
2022/10/16 03:40:16;;;;;;;7.57;5.35;;;12.40;99.90;;;;;;4982998;28;20038;-37
2022/10/16 03:42:43;;;;;;;4.07;2.97;;;12.30;99.90;;;;;;4967088;28;20031;-32
2022/10/16 03:45:10;;;;;;;4.28;2.58;;;12.30;99.90;;;;;;4980853;28;20034;-32
2022/10/16 03:47:37;;;;;;;6.68;4.85;;;12.30;99.90;;;;;;4951757;28;20042;-33
2022/10/16 03:50:04;;;;;;;7.78;3.25;;;12.30;99.90;;;;;;4984690;28;20547;-34
2022/10/16 03:52:30;;;;;;;3.63;2.90;;;12.40;99.90;;;;;;4983342;28;20030;-33
2022/10/16 03:54:57;;;;;;;4.28;2.97;;;12.30;99.90;;;;;;4983823;28;20463;-34
2022/10/16 03:57:23;;;;;;;6.53;3.13;;;12.40;99.90;;;;;;4967868;28;20527;-34
2022/10/16 03:59:49;;;;;;;2.38;1.85;;;12.50;99.90;;;;;;4985242;28;20486;-32
2022/10/16 04:02:15;;;;;;;4.10;1.63;;;12.50;99.90;;;;;;4982926;28;20046;-32
2022/10/16 04:04:41;;;;;;;2.95;1.58;;;12.50;99.90;;;;;;4982651;28;20039;-32
2022/10/16 04:07:08;;;;;;;2.45;1.40;;;12.50;99.90;;;;;;4984354;28;20058;-36
2022/10/16 04:09:34;;;;;;;1.38;1.27;;;12.50;99.90;;;;;;4982793;28;20027;-36
2022/10/16 04:12:00;;;;;;;4.78;1.58;;;12.50;99.90;;;;;;4982100;28;20054;-35
2022/10/16 04:14:26;;;;;;;2.22;1.40;;;12.50;99.90;;;;;;4981086;28;20040;-31
2022/10/16 04:16:52;;;;;;;2.03;1.50;;;12.50;99.90;;;;;;4980556;28;20039;-33
2022/10/16 04:19:18;;;;;;;3.85;1.40;;;12.50;99.90;;;;;;4981665;28;20424;-33
2022/10/16 04:21:44;;;;;;;3.42;1.48;;;12.50;99.90;;;;;;4981885;28;20396;-32
2022/10/16 04:24:11;;;;;;;3.58;1.92;;;12.60;99.90;;;;;;4981408;28;20031;-36
2022/10/16 04:26:37;;;;;;;2.65;1.95;;;12.50;99.90;;;;;;4984326;28;20034;-32
2022/10/16 04:29:03;;;;;;;2.28;1.70;;;12.50;99.90;;;;;;4981252;28;20022;-31
2022/10/16 04:31:30;;;;;;;1.52;1.42;;;12.50;99.90;;;;;;4969736;28;20115;-32
2022/10/16 04:33:55;;;;;;;4.05;1.75;;;12.50;99.90;;;;;;4984051;28;20391;-31
2022/10/16 04:36:22;;;;;;;3.10;1.80;;;12.60;99.90;;;;;;4980720;28;20022;-35
2022/10/16 04:38:47;;;;;;;1.65;1.55;;;12.60;99.90;;;;;;4966753;28;21558;-33
2022/10/16 04:41:13;;;;;;;2.85;1.55;;;12.60;99.90;;;;;;4986994;28;20031;-32
2022/10/16 04:43:39;;;;;;;3.33;1.75;;;12.50;99.90;;;;;;4981803;28;20068;-36
2022/10/16 04:46:05;;;;;;;2.38;1.48;;;12.40;99.90;;;;;;4967789;28;20019;-31
2022/10/16 04:48:32;;;;;;;2.90;1.42;;;12.50;99.90;;;;;;4972836;28;20027;-32
2022/10/16 04:50:58;;;;;;;7.70;1.75;;;12.50;99.90;;;;;;4987479;28;20038;-33
2022/10/16 04:53:23;;;;;;;1.50;1.40;;;12.30;99.90;;;;;;4972973;28;20443;-35
2022/10/16 04:55:50;;;;;;;3.72;1.40;;;12.40;99.90;;;;;;4972161;28;20027;-35
2022/10/16 04:58:16;;;;;;;6.15;1.83;;;12.30;99.90;;;;;;4970811;28;20110;-32
2022/10/16 05:00:42;;;;;;;2.55;1.63;;;12.30;99.90;;;;;;4970124;28;20038;-32
2022/10/16 05:03:08;;;;;;;1.80;1.60;;;12.30;99.90;;;;;;4970394;28;20031;-33
2022/10/16 05:05:35;;;;;;;4.65;1.80;;;12.40;99.90;;;;;;4970273;28;20069;-31
2022/10/16 05:08:02;;;;;;;2.83;1.55;;;12.40;99.90;;;;;;4970721;28;20034;-34
2022/10/16 05:10:28;;;;;;;3.20;1.80;;;12.40;99.90;;;;;;4986542;28;20049;-35
2022/10/16 05:12:54;;;;;;;4.68;1.50;;;12.30;99.90;;;;;;4972035;28;20392;-32
2022/10/16 05:15:19;;;;;;;1.60;1.50;;;12.10;99.90;;;;;;4971580;28;20040;-32
2022/10/16 05:17:45;;;;;;;2.58;1.75;;;12.10;99.90;;;;;;4973600;28;20035;-32
2022/10/16 05:20:12;;;;;;;1.60;1.50;;;12.10;99.90;;;;;;4971599;28;20038;-32
2022/10/16 05:22:37;;;;;;;1.70;1.60;;;12.00;99.90;;;;;;4984989;28;20038;-33
2022/10/16 05:25:03;;;;;;;3.00;1.80;;;12.00;99.90;;;;;;4973083;28;20062;-31
2022/10/16 05:27:29;;;;;;;5.40;2.00;;;12.00;99.90;;;;;;4974730;28;20023;-36
2022/10/16 05:29:55;;;;;;;2.92;1.50;;;12.00;99.90;;;;;;4983682;28;20157;-32
2022/10/16 05:32:21;;;;;;;2.65;1.48;;;12.10;99.90;;;;;;4999563;28;20031;-31
2022/10/16 05:34:47;;;;;;;1.60;1.50;;;12.10;99.90;;;;;;4969772;28;20169;-34
2022/10/16 05:37:13;;;;;;;1.30;1.30;;;11.80;99.90;;;;;;4982690;28;20035;-33
2022/10/16 05:39:39;;;;;;;1.83;1.50;;;11.70;99.90;;;;;;4969142;28;20033;-31
2022/10/16 05:42:06;;;;;;;2.10;1.48;;;11.70;99.90;;;;;;4985283;28;20027;-31
2022/10/16 05:44:31;;;;;;;1.50;1.40;;;11.60;99.90;;;;;;4970970;28;20070;-35
2022/10/16 05:46:58;;;;;;;3.05;1.20;;;11.50;99.90;;;;;;4970377;28;20050;-34
2022/10/16 05:49:24;;;;;;;3.00;1.40;;;11.50;99.90;;;;;;4988651;28;20023;-32
2022/10/16 05:51:50;;;;;;;1.30;1.20;;;11.50;99.90;;;;;;4986141;28;20054;-34
2022/10/16 05:54:16;;;;;;;1.90;1.70;;;11.50;99.90;;;;;;4986084;28;20078;-31
2022/10/16 05:56:43;;;;;;;2.08;1.40;;;11.60;99.90;;;;;;4985965;28;20505;-33
2022/10/16 05:59:10;;;;;;;1.80;1.70;;;11.70;99.90;;;;;;4985210;28;20031;-32
2022/10/16 06:01:36;;;;;;;1.85;1.50;;;11.60;99.90;;;;;;4985372;28;20101;-34
2022/10/16 06:04:03;;;;;;;1.65;1.55;;;11.50;99.90;;;;;;4984562;28;21119;-32
2022/10/16 06:06:30;;;;;;;4.35;1.52;;;11.50;99.90;;;;;;4983388;28;20062;-32
2022/10/16 06:08:57;;;;;;;1.53;1.43;;;11.50;99.90;;;;;;4982618;28;20026;-35
2022/10/16 06:11:26;;;;;;;1.58;1.48;;;11.60;99.90;;;;;;4969155;28;20046;-31
2022/10/16 06:13:56;;;;;;;1.63;1.52;;;11.70;99.90;;;;;;4983954;28;20051;-33
2022/10/16 06:16:23;;;;;;;2.03;1.42;;;11.80;99.90;;;;;;4983474;28;20043;-32
2022/10/16 06:18:52;;;;;;;1.58;1.48;;;11.80;99.90;;;;;;4969103;28;20409;-36
2022/10/16 06:21:21;;;;;;;3.00;1.60;;;11.90;99.90;;;;;;4985146;28;20388;-36
2022/10/16 06:23:47;;;;;;;;;;;11.90;99.90;;;;;;4975397;28;20034;-34
2022/10/16 06:26:19;;;;;;;2.88;1.48;;;11.90;99.90;;;;;;4984762;28;20279;-34
2022/10/16 06:28:46;;;;;;;1.02;1.02;;;11.90;99.90;;;;;;4981472;28;20886;-34
2022/10/16 06:31:16;;;;;;;2.75;1.20;;;11.80;99.90;;;;;;4951712;28;20068;-34
2022/10/16 06:33:43;;;;;;;1.20;1.20;;;11.70;99.90;;;;;;4984286;28;20058;-36
2022/10/16 06:36:12;;;;;;;2.13;1.70;;;11.70;99.90;;;;;;4968114;28;20034;-32
2022/10/16 06:38:40;;;;;;;4.30;1.17;;;11.80;99.90;;;;;;4997473;28;20043;-33
2022/10/16 06:41:08;;;;;;;1.98;1.48;;;11.80;99.90;;;;;;4967101;28;20036;-32
2022/10/16 06:43:37;;;;;;;1.70;1.60;;;11.90;99.90;;;;;;4983062;28;20051;-31
2022/10/16 06:46:07;;;;;;;1.60;1.50;;;12.00;99.90;;;;;;4984483;28;20031;-35
2022/10/16 06:48:34;;;;;;;3.10;1.80;;;12.10;99.90;;;;;;4967899;28;20946;-34
2022/10/16 06:51:03;;;;;;;2.42;1.92;;;12.10;99.90;;;;;;4986295;28;20439;-35
2022/10/16 06:53:35;;;;;;;5.03;2.20;;;12.10;99.90;;;;;;4966840;28;21046;-34
2022/10/16 06:56:14;;;;;;;5.28;2.10;;;12.20;99.90;;;;;;4935295;28;20038;-34
2022/10/16 06:58:50;;;;;;;3.95;1.80;;;12.30;99.90;;;;;;4985111;28;20500;-33
2022/10/16 07:01:18;;;;;;;2.10;1.90;;;12.40;99.90;;;;;;4995285;28;20594;-34
2022/10/16 07:03:47;;;;;;;2.50;2.03;;;12.50;99.90;;;;;;4983257;28;20030;-36
2022/10/16 07:06:19;;;;;;;3.53;1.98;;;12.50;99.90;;;;;;4980427;28;20035;-32
2022/10/16 07:08:47;;;;;;;2.47;2.03;;;12.60;99.90;;;;;;4966916;28;20026;-32
2022/10/16 07:11:17;;;;;;;3.13;1.90;;;12.70;99.90;;;;;;4951584;28;20162;-34
2022/10/16 07:13:44;;;;;;;4.57;2.50;;;12.80;99.90;;;;;;4983225;28;20113;-31
2022/10/16 07:16:20;;;;;;;3.47;1.80;;;12.90;99.90;;;;;;4966065;28;20031;-33
2022/10/16 07:18:48;;;;;;;2.83;2.08;;;13.10;99.90;;;;;;4983866;28;20035;-33
2022/10/16 07:21:17;;;;;;;3.75;1.80;;;13.20;99.90;;;;;;4968811;28;20034;-34
2022/10/16 07:23:43;;;;;;;2.03;1.50;;;13.30;99.90;;;;;;4984042;28;20132;-32
2022/10/16 07:26:11;;;;;;;3.53;2.30;;;13.50;99.90;;;;;;4984437;28;20137;-32
2022/10/16 07:28:39;;;;;;;3.80;2.15;;;13.50;99.90;;;;;;4985538;28;20058;-36
2022/10/16 07:31:11;;;;;;;2.72;2.20;;;13.70;99.90;;;;;;4967236;28;20037;-33
2022/10/16 07:33:39;;;;;;;3.28;2.10;;;13.70;99.90;;;;;;4982248;28;20034;-34
2022/10/16 07:36:06;;;;;;;2.97;2.00;;;13.80;99.90;;;;;;4982830;28;20035;-33
2022/10/16 07:38:33;;;;;;;3.90;2.13;;;13.90;99.90;;;;;;4964690;28;20547;-36
2022/10/16 07:40:59;;;;;;;2.60;1.73;;;13.90;99.90;;;;;;4969208;28;20058;-36
2022/10/16 07:43:27;;;;;;;5.07;1.80;;;14.00;99.90;;;;;;4970120;28;20045;-31
2022/10/16 07:45:54;;;;;;;4.55;1.98;;;14.10;99.90;;;;;;4981773;28;20058;-34
2022/10/16 07:48:22;;;;;;;3.47;1.90;;;14.20;99.90;;;;;;4966305;28;20596;-34
2022/10/16 07:50:49;;;;;;;2.73;1.90;;;14.20;99.90;;;;;;4982267;28;20026;-33
2022/10/16 07:53:15;;;;;;;3.33;1.98;;;14.30;99.90;;;;;;4981471;28;20034;-32
2022/10/16 07:55:41;;;;;;;2.35;1.60;;;14.50;99.90;;;;;;4971508;28;20400;-35
2022/10/16 07:58:07;;;;;;;2.80;1.38;;;14.60;99.90;;;;;;4965875;28;20064;-34
2022/10/16 08:00:33;;;;;;;2.08;1.88;;;14.80;99.90;;;;;;4966516;28;20027;-34
2022/10/16 08:03:00;;;;;;;2.95;1.80;;;14.90;99.90;;;;;;4968748;28;20058;-37
2022/10/16 08:05:27;;;;;;;2.22;1.60;;;15.10;99.90;;;;;;4983824;28;20038;-32
2022/10/16 08:07:53;;;;;;;2.83;1.70;;;15.30;99.90;;;;;;4967903;28;20037;-37
2022/10/16 08:10:21;;;;;;;1.48;1.30;;;15.40;99.90;;;;;;4966389;28;20027;-35
2022/10/16 08:12:46;;;;;;;5.03;1.70;;;15.50;99.90;;;;;;4980146;28;20451;-34
2022/10/16 08:15:12;;;;;;;5.25;1.55;;;15.60;99.90;;;;;;4967039;28;20113;-32
2022/10/16 08:17:38;;;;;;;1.92;1.50;;;15.70;99.90;;;;;;4968372;28;20034;-32
2022/10/16 08:20:04;;;;;;;1.33;1.23;;;15.90;99.90;;;;;;4968448;28;20062;-33
2022/10/16 08:22:30;;;;;;;1.40;1.10;;;16.00;99.90;;;;;;4964829;28;20027;-31
2022/10/16 08:24:56;;;;;;;2.17;1.60;;;16.00;99.90;;;;;;4966237;28;20030;-32
2022/10/16 08:27:21;;;;;;;1.50;1.40;;;16.20;99.90;;;;;;4967061;28;20039;-33
2022/10/16 08:29:49;;;;;;;1.60;1.45;;;16.50;99.90;;;;;;4968538;28;20058;-36
2022/10/16 08:32:16;;;;;;;1.85;1.20;;;16.80;99.90;;;;;;4982871;28;20042;-33
2022/10/16 08:34:41;;;;;;;2.13;1.20;;;17.10;99.90;;;;;;4962466;28;20042;-34
2022/10/16 08:37:10;;;;;;;1.85;1.33;;;17.50;99.90;;;;;;4965930;28;20038;-35
2022/10/16 08:39:36;;;;;;;2.90;1.63;;;17.80;99.90;;;;;;4949068;28;20031;-33
2022/10/16 08:42:13;;;;;;;1.17;1.10;;;18.10;99.90;;;;;;4967791;28;20049;-34
2022/10/16 08:44:57;;;;;;;1.30;1.20;;;18.10;99.90;;;;;;4963981;28;20023;-32
2022/10/16 08:47:39;;;;;;;2.45;1.17;;;18.20;99.90;;;;;;4962168;28;20106;-32
2022/10/16 08:50:29;;;;;;;1.50;1.40;;;18.50;99.90;;;;;;4966277;28;20488;-34
2022/10/16 08:52:56;;;;;;;2.88;0.70;;;18.80;99.90;;;;;;4966776;28;20023;-32
2022/10/16 08:55:42;;;;;;;1.15;1.10;;;19.00;99.90;;;;;;4966308;28;20066;-34
2022/10/16 08:58:14;;;;;;;5.57;1.65;;;19.10;99.90;;;;;;4968222;28;20085;-33
2022/10/16 09:00:41;;;;;;;1.77;1.10;;;19.20;99.90;;;;;;4966270;28;20031;-33
2022/10/16 09:03:43;;;;;;;1.40;0.80;;;19.20;99.90;;;;;;4966790;28;20496;-33
2022/10/16 09:06:15;;;;;;;1.30;1.00;;;19.10;99.90;;;;;;4965137;28;20027;-33
2022/10/16 09:09:04;;;;;;;0.98;0.98;;;19.20;99.90;;;;;;4964593;28;20031;-37
2022/10/16 09:11:48;;;;;;;1.45;0.77;;;19.40;99.90;;;;;;4964435;28;20138;-35
2022/10/16 09:14:36;;;;;;;0.90;0.90;;;19.60;99.90;;;;;;4963082;28;20035;-32
2022/10/16 09:17:13;;;;;;;1.00;0.73;;;19.70;99.90;;;;;;4963255;28;20117;-31
2022/10/16 09:19:45;;;;;;;0.70;0.70;;;19.90;99.90;;;;;;4964540;28;20030;-31
2022/10/16 09:22:15;;;;;;;2.08;0.90;;;20.20;99.90;;;;;;4962405;28;20124;-31
2022/10/16 09:24:41;;;;;;;1.45;0.82;;;20.30;99.80;;;;;;4967926;28;20711;-34
2022/10/16 09:27:14;;;;;;;0.82;0.80;;;20.20;96.40;;;;;;4970198;28;20122;-34
2022/10/16 09:29:40;;;;;;;0.80;0.70;;;20.10;99.60;;;;;;4967793;28;20041;-32
2022/10/16 09:32:20;;;;;;;0.70;0.70;;;20.10;98.50;;;;;;4967225;28;20030;-31
2022/10/16 09:34:50;;;;;;;3.25;1.00;;;19.90;98.00;;;;;;4963998;28;20055;-30
2022/10/16 09:37:22;;;;;;;0.90;0.90;;;19.90;98.90;;;;;;4965535;28;20038;-34
2022/10/16 09:39:50;;;;;;;0.73;0.73;;;19.90;99.90;;;;;;4968988;28;20112;-34
2022/10/16 09:42:31;;;;;;;1.67;0.80;;;19.90;98.10;;;;;;4965625;28;20580;-32
2022/10/16 09:44:57;;;;;;;1.08;0.98;;;19.90;99.90;;;;;;4965421;28;20738;-34
2022/10/16 09:47:28;;;;;;;2.47;0.90;;;20.00;99.90;;;;;;4973172;28;20019;-31
2022/10/16 09:50:05;;;;;;;1.15;0.90;;;20.10;99.90;;;;;;4985847;28;20055;-34
2022/10/16 09:52:32;;;;;;;1.17;1.00;;;20.20;96.20;;;;;;4968179;28;20254;-31
2022/10/16 09:55:14;;;;;;;1.05;1.00;;;20.10;98.50;;;;;;4966050;28;20411;-33
2022/10/16 09:57:53;;;;;;;2.22;0.85;;;20.20;98.70;;;;;;4966333;28;20061;-33
2022/10/16 10:00:20;;;;;;;1.20;1.10;;;20.10;97.10;;;;;;4965983;28;20033;-35
2022/10/16 10:02:46;;;;;;;3.08;1.08;;;20.00;97.30;;;;;;4973967;28;20034;-35
2022/10/16 10:05:32;;;;;;;4.05;1.17;;;20.00;99.60;;;;;;4969351;28;20507;-32
2022/10/16 10:08:05;;;;;;;2.55;0.95;;;20.10;99.80;;;;;;4981607;28;20042;-31
2022/10/16 10:10:34;;;;;;;2.15;1.00;;;20.20;98.90;;;;;;4966794;28;20121;-33
2022/10/16 10:13:00;;;;;;;1.13;0.90;;;20.30;99.90;;;;;;4961583;28;20749;-33
2022/10/16 10:15:29;;;;;;;3.70;1.38;;;20.40;98.40;;;;;;4966528;28;20365;-31
2022/10/16 10:17:57;;;;;;;1.23;1.00;;;20.50;97.70;;;;;;4963063;28;20953;-31
2022/10/16 10:20:25;;;;;;;1.42;0.80;;;20.60;95.20;;;;;;4967045;28;20038;-34
2022/10/16 10:22:51;;;;;;;1.73;0.90;;;20.50;95.10;;;;;;4967059;28;20076;-31
2022/10/16 10:25:51;;;;;;;2.83;0.88;;;20.60;96.10;;;;;;4966817;28;20478;-31
2022/10/16 10:28:35;;;;;;;0.98;0.98;;;20.60;95.70;;;;;;4966239;28;20470;-33
2022/10/16 10:31:20;;;;;;;1.65;1.30;;;20.60;96.20;;;;;;4964873;28;20444;-32
2022/10/16 10:33:57;;;;;;;1.25;1.15;;;20.70;98.40;;;;;;4965369;28;20027;-38
2022/10/16 10:36:23;;;;;;;2.87;1.47;;;20.70;99.90;;;;;;4967700;28;20039;-30
2022/10/16 10:39:02;;;;;;;1.00;1.00;;;20.80;98.30;;;;;;4970161;28;20035;-34
2022/10/16 10:41:43;;;;;;;1.17;1.05;;;20.80;95.10;;;;;;4968662;28;20425;-33
2022/10/16 10:44:59;;;;;;;1.45;1.10;;;20.80;97.50;;;;;;4965384;28;20036;-32
2022/10/16 10:47:38;;;;;;;3.65;1.10;;;21.00;94.90;;;;;;4908771;29;20040;-35
2022/10/16 10:50:27;;;;;;;1.25;0.90;;;21.10;92.10;;;;;;4965378;28;20046;-32
2022/10/16 10:53:13;;;;;;;1.85;1.05;;;21.00;91.70;;;;;;4963423;28;20034;-31
2022/10/16 10:55:56;;;;;;;1.63;1.35;;;21.00;94.10;;;;;;4970879;28;20042;-31
2022/10/16 10:58:46;;;;;;;1.08;0.90;;;21.10;93.20;;;;;;4966865;28;20023;-31
2022/10/16 11:01:18;;;;;;;1.63;1.33;;;21.10;96.70;;;;;;4966182;28;20126;-33
2022/10/16 11:03:55;;;;;;;1.48;1.00;;;21.10;91.50;;;;;;4971121;28;20101;-35
2022/10/16 11:06:24;;;;;;;1.10;1.00;;;21.20;95.00;;;;;;4966426;28;20111;-34
2022/10/16 11:08:55;;;;;;;1.25;0.90;;;21.10;92.80;;;;;;4967732;28;20109;-34
2022/10/16 11:11:29;;;;;;;2.35;0.90;;;21.10;91.30;;;;;;4966139;28;20396;-31
2022/10/16 11:14:21;;;;;;;1.80;0.98;;;21.10;96.50;;;;;;4965582;28;20102;-32
2022/10/16 11:16:56;;;;;;;2.30;0.95;;;21.20;92.40;;;;;;4970713;28;20030;-30
2022/10/16 11:19:22;;;;;;;2.10;1.00;;;21.10;91.70;;;;;;4965072;28;20106;-33
2022/10/16 11:22:08;;;;;;;1.73;0.70;;;21.20;94.60;;;;;;4970156;28;20036;-33
2022/10/16 11:24:53;;;;;;;2.75;1.10;;;21.30;94.50;;;;;;4966859;28;20416;-32
2022/10/16 11:27:36;;;;;;;1.33;0.90;;;21.40;93.10;;;;;;4970974;28;20051;-34
2022/10/16 11:30:06;;;;;;;2.10;1.13;;;21.30;92.50;;;;;;4969006;28;20055;-32
2022/10/16 11:32:40;;;;;;;1.63;1.00;;;21.40;95.80;;;;;;4967482;28;20031;-33
2022/10/16 11:35:18;;;;;;;3.70;0.80;;;21.50;92.40;;;;;;4979234;28;20027;-30
2022/10/16 11:37:48;;;;;;;1.67;1.00;;;21.40;90.00;;;;;;4986467;28;20432;-32
2022/10/16 11:40:27;;;;;;;0.85;0.80;;;21.30;91.40;;;;;;4965055;28;20031;-33
2022/10/16 11:43:14;;;;;;;0.90;0.88;;;21.20;93.80;;;;;;4969678;28;20026;-31
2022/10/16 11:45:45;;;;;;;2.70;0.90;;;21.30;97.30;;;;;;4968694;28;20518;-34
2022/10/16 11:48:32;;;;;;;3.38;1.08;;;21.30;90.50;;;;;;4985727;28;20023;-36
2022/10/16 11:51:10;;;;;;;1.33;1.10;;;21.30;94.20;;;;;;4967257;28;20042;-36
2022/10/16 11:54:05;;;;;;;2.38;0.90;;;21.30;87.70;;;;;;4971853;28;20451;-32
2022/10/16 11:56:35;;;;;;;0.90;0.90;;;21.30;89.20;;;;;;4964272;28;20407;-32
2022/10/16 11:59:33;;;;;;;0.90;0.90;;;21.40;91.30;;;;;;4966685;28;20027;-31
2022/10/16 12:02:26;;;;;;;1.40;1.15;;;21.40;90.70;;;;;;4968138;28;20061;-34
2022/10/16 12:05:05;;;;;;;1.30;0.93;;;21.60;92.30;;;;;;4967524;28;20069;-31
2022/10/16 12:07:39;;;;;;;1.83;1.20;;;21.70;92.20;;;;;;4969289;28;21163;-33
2022/10/16 12:10:37;;;;;;;1.67;1.10;;;21.60;87.50;;;;;;4968684;28;20157;-31
2022/10/16 12:13:04;;;;;;;0.98;0.95;;;21.70;92.30;;;;;;4965717;28;20120;-34
2022/10/16 12:15:33;;;;;;;3.05;1.23;;;21.70;90.20;;;;;;4957431;28;20400;-34
2022/10/16 12:17:59;;;;;;;0.85;0.80;;;21.70;91.00;;;;;;4976098;28;20035;-31
2022/10/16 12:20:31;;;;;;;1.42;1.10;;;21.70;87.30;;;;;;4966741;28;20472;-35
2022/10/16 12:23:17;;;;;;;4.43;1.10;;;21.60;90.10;;;;;;4962480;28;20039;-33
2022/10/16 12:25:46;;;;;;;3.50;1.30;;;21.60;87.30;;;;;;4967326;28;20130;-31
2022/10/16 12:28:15;;;;;;;1.45;1.10;;;21.60;91.10;;;;;;4987472;28;20126;-32
2022/10/16 12:30:43;;;;;;;1.08;0.90;;;21.50;90.50;;;;;;4981250;28;20085;-36
2022/10/16 12:33:37;;;;;;;4.22;1.20;;;21.50;93.60;;;;;;4951190;28;20063;-33
2022/10/16 12:36:11;;;;;;;1.23;1.10;;;21.60;93.20;;;;;;4970660;28;20042;-33
2022/10/16 12:38:45;;;;;;;1.55;1.00;;;21.60;93.80;;;;;;4973034;28;20049;-31
2022/10/16 12:41:12;;;;;;;0.80;0.80;;;21.70;90.90;;;;;;4974762;28;20145;-32
2022/10/16 12:43:43;;;;;;;2.77;1.57;;;21.90;92.60;;;;;;4970949;28;20407;-31
2022/10/16 12:46:08;;;;;;;2.92;0.80;;;21.80;90.90;;;;;;4966397;28;20034;-34
2022/10/16 12:48:36;;;;;;;1.05;0.88;;;21.90;90.10;;;;;;4969118;28;20085;-32
2022/10/16 12:51:12;;;;;;;0.80;0.80;;;22.00;70.50;;;;;;4970958;28;20038;-31
2022/10/16 12:53:38;;;;;;;0.80;0.80;;;22.00;77.30;;;;;;4980329;28;20039;-34
2022/10/16 12:56:31;;;;;;;1.73;0.90;;;21.90;74.60;;;;;;4972121;28;20085;-31
2022/10/16 12:59:10;;;;;;;0.90;0.88;;;21.90;71.90;;;;;;4971069;28;20817;-33
2022/10/16 13:01:56;;;;;;;4.65;0.93;;;22.10;75.90;;;;;;4967566;28;20476;-32
2022/10/16 13:04:39;;;;;;;2.22;0.95;;;22.20;71.20;;;;;;4968873;28;20118;-33
2022/10/16 13:07:23;;;;;;;4.32;1.02;;;22.30;73.90;;;;;;4969581;28;20027;-35
2022/10/16 13:09:58;;;;;;;1.58;0.80;;;22.30;68.50;;;;;;4969979;28;20042;-33